Historyczne dane pomiarowe

Dodano dane terminowe – wersja testowa.

Dane z okresu 1951-2019

Wersja bazy: 1.34 [2019-03-16, lista zmian], aktualizacja planowana na 2019-04-15

Dane meteo z obszaru Polski uzyskane na podstawie danych udostępnionych przez Instytut Meteorologii i Gospodarki Wodnej – Państwowy Instytut Badawczy.

 

Wybierz Datę:    

       

TemperaturaWilgotnośćWiatrCiśnienieOpadyŚniegCzas trwania zjawisk
 Stacja t tx tn tng RH VA  wxwx mslp ppp RRR   cm mm wxwxwxwxwxwxwx
1983-08-14 13.2 17.4 10.0 8.5 73.8- 3.0 3.3---- 0.0------------
1983-08-13 14.6 21.7 12.8 10.5 84.5- 6.3 3.3---- 2.2------------
1983-08-12 21.0 26.6 16.3 14.4 63.0- 0.3 1.3---- 2.5------------
1983-08-11 20.0 25.7 14.6 12.2 72.3- 4.7 2.0---- 0.0------------
1983-08-10 19.0 25.1 12.4 10.0 72.3- 0.7 1.3---- 0.0------------
1983-08-09 20.0 25.0 14.8 12.8 73.3- 1.0 2.3---- 0.0------------
1983-08-08 20.2 26.8 15.8 14.5 79.0- 3.0 3.3---- 0.0------------
1983-08-07 18.6 25.8 14.6 12.7 86.3- 4.7 3.7---- 0.0------------
1983-08-06 16.5 22.2 8.9 7.5 79.3- 3.3 1.3---- 0.0------------
1983-08-05 13.7 15.6 12.2 13.0 89.5- 8.0 2.3---- 0.0------------
1983-08-04 16.1 25.0 13.3 14.0 95.3- 8.0 2.7---- 33.8------------
1983-08-03 21.5 28.2 14.1 11.5 59.8- 2.0 5.0---- 7.8------------
1983-08-02 19.8 27.3 10.7 7.3 61.8- 0.7 3.0---- 0.0------------
1983-08-01 18.9 26.9 9.4 7.2 65.0- 0.3 1.7---- 0.0------------
1983-07-31 18.0 23.1 10.3 8.0 72.8- 1.0 2.3---- 0.0------------
1983-07-30 16.4 19.6 13.4 12.0 80.3- 7.7 3.0---- 0.5------------
1983-07-29 17.5 22.6 13.8 13.0 82.5- 6.0 2.3---- 0.0------------
1983-07-28 20.9 26.1 17.4 15.5 72.0- 3.7 3.7---- 0.0------------
1983-07-27 21.4 28.4 14.8 13.0 74.3- 0.0 1.3---- 0.0------------
1983-07-26 20.0 27.1 13.8 13.0 82.8- 4.7 3.0---- 0.0------------
1983-07-25 14.7 19.1 10.3 8.5 86.0- 8.0 3.3---- 6.4------------
1983-07-24 14.9 19.6 10.3 9.0 80.5- 5.3 1.3---- 0.0------------
1983-07-23 12.5 18.1 9.4 9.5 94.0- 8.0 2.7---- 6.8------------
1983-07-22 13.5 17.6 9.8 9.0 79.3- 4.7 3.7---- 9.5------------
1983-07-21 11.4 17.1 7.4 6.2 79.0- 3.7 3.0---- 0.0------------
1983-07-20 12.8 21.6 10.2 11.5 83.0- 4.7 1.7---- 9.8------------
1983-07-19 19.4 25.1 13.8 10.5 70.0- 6.3 2.3---- 0.0------------
1983-07-18 19.5 27.6 7.8 5.5 56.5- 0.7 2.0---- 0.0------------
1983-07-17 18.6 22.6 12.3 10.0 64.5- 1.3 1.3---- 0.0------------
1983-07-16 20.0 28.1 12.3 9.0 67.0- 2.3 4.0---- 0.0------------
1983-07-15 18.8 25.2 12.4 11.1 59.0- 1.7 2.7---- 0.0------------
1983-07-14 19.9 24.2 16.3 14.4 78.3- 4.7 4.0---- 0.0------------
1983-07-13 19.6 25.7 12.6 10.0 81.8- 3.3 0.7---- 0.0------------
1983-07-12 18.6 23.1 15.3 12.6 84.8- 4.0 2.3---- 0.0------------
1983-07-11 21.6 27.7 16.9 13.5 71.0- 5.7 2.0---- 9.2------------
1983-07-10 20.8 27.1 13.3 9.5 65.5- 2.7 3.0---- 0.5------------
1983-07-09 20.4 27.1 13.8 10.0 69.0- 1.3 4.0---- 0.0------------
1983-07-08 18.1 24.1 10.8 6.0 69.5- 1.3 2.0---- 0.0------------
1983-07-07 17.7 23.1 11.3 7.0 62.8- 0.0 2.0---- 0.0------------
1983-07-06 17.3 23.1 10.3 7.5 69.0- 0.0 1.3---- 0.0------------
1983-07-05 16.9 22.6 12.3 10.5 67.5- 0.0 2.0---- 0.0------------
1983-07-04 19.6 25.8 11.3 8.0 60.5- 2.3 2.7---- 0.0------------
1983-07-03 16.1 22.5 8.4 4.1 69.3- 0.0 0.7---- 0.0------------
1983-07-02 17.6 23.8 13.0 9.6 82.0- 0.0 2.3---- 0.0------------
1983-07-01 18.9 24.6 11.2 7.4 75.5- 3.0 2.0---- 0.0------------
1983-06-30 15.9 23.6 6.7 3.6 68.3- 0.0 2.0---- 0.0------------
1983-06-29 14.7 19.1 8.3 5.0 63.5- 1.7 2.0---- 0.0------------
1983-06-28 15.4 20.1 9.3 12.0 94.5- 8.0 1.7---- 8.6------------
1983-06-27 17.8 24.8 7.4 4.1 77.8- 5.0 1.7---- 9.0------------
1983-06-26 17.8 23.1 9.8 5.5 59.0- 0.7 1.0---- 0.0------------
1983-06-25 19.2 28.1 9.0 6.0 60.8- 3.3 3.7---- 0.0------------
1983-06-24 17.1 25.6 6.4 2.1 50.5- 0.0 3.0---- 0.0------------
1983-06-23 13.3 20.6 1.0 2.1 57.3- 0.0 1.7---- 0.0------------
1983-06-22 11.0 16.1 3.4 1.1 61.3- 1.0 3.0---- 0.0------------
1983-06-21 16.7 24.2 10.8 10.2 65.8- 0.0 3.3---- 0.0------------
1983-06-20 18.9 23.6 13.3 10.5 67.0- 1.0 5.3---- 0.0------------
1983-06-19 16.8 20.6 13.8 12.0 88.0- 7.7 5.0---- 0.0------------
1983-06-18 13.7 18.2 9.8 7.8 84.3- 8.0 3.3---- 0.0------------
1983-06-17 14.5 19.2 10.8 9.5 70.8- 7.3 3.3---- 0.0------------
1983-06-16 14.0 22.6 11.3 10.0 80.8- 3.3 2.7---- 1.4------------
1379.1 ms

 

Źródłem pochodzenia danych jest Instytut Meteorologii i Gospodarki Wodnej – Państwowy Instytut Badawczy. Dane Instytutu Meteorologii i Gospodarki Wodnej – Państwowego Instytutu Badawczego zostały przetworzone.

Dane źródłowe można odnaleźć na stronie https://dane.imgw.pl